Latest Coastal Weather Observations for Wilsons Promontory

IDV60701

Issued at 10:01 pm EST Tuesday 26 May 2015 (issued every 10 minutes, with the page automatically refreshed every 10 minutes)

About coastal observations | Map of coastal stations | Coastal observations for VIC | Marine services | Other Formats
Station Details ID: 085096 Name: WILSONS PROMONTORY LIGHTHOUSE Lat: -39.13 Lon: 146.42 Height: 95.0 m
Data from the previous 72 hours. | See also: Recent months at Wilsons Promontory
Date/Time
EST
Temp

°C
Wind Pressure Rain
since 9am
mm
Weather Cloud Vis
km
Sea
Height
m
Swell
Dir
 
Speed
knots
Gust
knots
hPa Trend Height
m
Period
s
Dir
26/10:00pm 12.9 N 12 16 1023.7 - 0.0 - - - - - - -
26/09:30pm 12.8 N 10 14 1023.9 - 0.0 - - - - - - -
26/09:00pm 12.9 N 12 16 1024.0 - 0.0 - - - - - - -
26/08:30pm 12.8 N 12 15 1024.2 - 0.0 - - - - - - -
26/08:00pm 12.6 N 12 17 1024.4 - 0.0 - - - - - - -
26/07:30pm 12.6 N 12 15 1024.7 - 0.0 - - - - - - -
26/07:00pm 12.6 NNE 10 13 1024.9 - 0.0 - - - - - - -
26/06:30pm 12.4 NNE 10 13 1025.0 - 0.0 - - - - - - -
26/06:00pm 12.2 N 8 10 1025.3 - 0.0 - - - - - - -
26/05:30pm 12.2 N 8 10 1025.4 - 0.0 - - - - - - -
26/05:00pm 12.5 NNE 7 9 1025.2 - 0.0 - - - - - - -
26/04:30pm 12.8 NNE 6 9 1025.2 - 0.0 - - - - - - -
26/04:00pm 13.1 NNE 4 5 1025.3 - 0.0 - - - - - - -
26/03:30pm 13.1 CALM 0 0 1025.5 - 0.0 - - - - - - -
26/03:00pm 13.3 CALM 0 0 1025.7 - 0.0 - - - - - - -
26/02:30pm 13.6 SW 4 5 1026.0 - 0.0 - - - - - - -
26/02:00pm 13.5 CALM 0 0 1026.1 - 0.0 - - - - - - -
26/01:30pm 14.4 S 1 4 1026.5 - 0.0 - - - - - - -
26/01:00pm 14.0 ENE 4 5 1026.7 - 0.0 - - - - - - -
26/12:30pm 14.2 NE 5 6 1027.1 - 0.0 - - - - - - -
26/12:00pm 14.5 NE 5 7 1027.4 - 0.0 - - - - - - -
26/11:30am 14.5 NE 5 6 1028.1 - 0.0 - - - - - - -
26/11:00am 14.2 ENE 5 6 1028.4 - 0.0 - - - - - - -
26/10:30am 14.2 E 5 6 1028.6 - 0.0 - - - - - - -
26/10:00am 15.0 CALM 0 3 1028.6 - 0.0 - - - - - - -
26/09:30am 14.5 NW 5 11 1028.5 - 0.0 - - - - - - -
26/09:00am 13.0 W 10 14 1028.6 - 0.0 - - - - - - -
26/08:30am 13.3 WNW 9 12 1028.9 - 0.0 - - - - - - -
26/08:00am 12.7 WNW 9 12 1028.7 - 0.0 - - - - - - -
26/07:30am 12.3 NW 10 15 1028.7 - 0.0 - - - - - - -
26/07:00am 12.1 NNW 8 15 1028.4 - 0.0 - - - - - - -
26/06:30am 12.1 NW 8 12 1028.0 - 0.0 - - - - - - -
26/06:00am 12.4 NW 8 13 1028.0 - 0.0 - - - - - - -
26/05:30am 12.3 NW 9 15 1028.0 - 0.0 - - - - - - -
26/05:00am 12.1 NW 11 16 1028.0 - 0.0 - - - - - - -
26/04:30am 12.0 NW 12 17 1028.0 - 0.0 - - - - - - -
26/04:00am 12.0 NW 11 18 1028.0 - 0.0 - - - - - - -
26/03:30am 12.2 NW 10 17 1028.1 - 0.0 - - - - - - -
26/03:00am 12.3 WNW 11 16 1028.3 - 0.0 - - - - - - -
26/02:30am 12.4 NNW 8 12 1028.5 - 0.0 - - - - - - -
26/02:00am 12.3 NW 10 16 1028.4 - 0.0 - - - - - - -
26/01:30am 12.1 NNW 6 9 1028.3 - 0.0 - - - - - - -
26/01:00am 12.6 NNE 4 7 1028.5 - 0.0 - - - - - - -
26/12:30am 12.3 ESE 3 5 1028.8 - 0.0 - - - - - - -
26/12:00am 12.5 ENE 3 6 1028.9 - 0.0 - - - - - - -
 
Date/Time
EST
Temp

°C
Wind Pressure Rain
since 9am
mm
Weather Cloud Vis
km
Sea
Height
m
Swell
Dir
 
Speed
knots
Gust
knots
hPa Trend Height
m
Period
s
Dir
25/11:30pm 12.3 SE 3 4 1029.1 - 0.0 - - - - - - -
25/11:00pm 12.6 W 7 14 1029.0 - 0.0 - - - - - - -
25/10:30pm 12.7 WNW 11 14 1029.0 - 0.0 - - - - - - -
25/10:00pm 12.6 WNW 13 17 1029.2 - 0.0 - - - - - - -
25/09:30pm 12.3 WNW 7 12 1029.4 - 0.0 - - - - - - -
25/09:00pm 11.8 NW 5 11 1029.3 - 0.0 - - - - - - -
25/08:30pm 11.6 WNW 9 13 1029.3 - 0.0 - - - - - - -
25/08:00pm 11.9 WNW 11 15 1029.3 - 0.0 - - - - - - -
25/07:30pm 12.1 W 9 11 1029.1 - 0.0 - - - - - - -
25/07:00pm 12.1 WNW 11 14 1029.1 - 0.0 - - - - - - -
25/06:30pm 11.9 WNW 11 13 1029.0 - 0.0 - - - - - - -
25/06:00pm 12.0 WNW 11 13 1028.9 - 0.0 - - - - - - -
25/05:30pm 12.0 WNW 11 13 1028.7 - 0.0 - - - - - - -
25/05:00pm 12.4 WNW 8 13 1028.5 - 0.0 - - - - - - -
25/04:30pm 12.6 W 9 13 1028.2 - 0.0 - - - - - - -
25/04:00pm 13.1 W 9 14 1028.3 - 0.0 - - - - - - -
25/03:30pm 13.4 W 7 12 1028.3 - 0.0 - - - - - - -
25/03:00pm 13.6 W 10 14 1028.3 - 0.0 - - - - - - -
25/02:30pm 13.5 W 12 17 1028.3 - 0.0 - - - - - - -
25/02:00pm 13.6 WSW 9 18 1028.5 - 0.0 - - - - - - -
25/01:30pm 14.1 W 9 15 1028.5 - 0.0 - - - - - - -
25/01:00pm 14.0 SW 7 15 1028.9 - 0.0 - - - - - - -
25/12:30pm 13.4 W 12 19 1029.2 - 0.0 - - - - - - -
25/12:00pm 12.8 W 10 17 1029.4 - 0.0 - - - - - - -
25/11:30am 13.0 W 6 13 1029.9 - 0.0 - - - - - - -
25/11:00am 12.4 NW 12 17 1030.1 - 0.0 - - - - - - -
25/10:30am 12.0 NW 13 20 1030.3 - 0.0 - - - - - - -
25/10:00am 11.7 NW 15 20 1030.2 - 0.0 - - - - - - -
25/09:30am 11.7 NW 15 19 1030.3 - 0.0 - - - - - - -
25/09:00am 11.5 NW 13 18 1030.3 - 0.0 - - - - - - -
25/08:30am 11.1 NW 14 18 1030.4 - 0.0 - - - - - - -
25/08:00am 11.3 WNW 13 19 1030.2 - 0.0 - - - - - - -
25/07:30am 11.2 WNW 10 13 1029.8 - 0.0 - - - - - - -
25/07:00am 11.0 NW 8 11 1029.6 - 0.0 - - - - - - -
25/06:30am 11.1 NW 5 8 1029.6 - 0.0 - - - - - - -
25/06:00am 11.1 SSE 2 5 1029.7 - 0.0 - - - - - - -
25/05:30am 10.5 NNE 3 6 1029.5 - 0.0 - - - - - - -
25/05:00am 10.4 NW 3 6 1029.4 - 0.0 - - - - - - -
25/04:30am 10.7 S 4 6 1029.5 - 0.0 - - - - - - -
25/04:00am 10.7 WSW 5 8 1029.6 - 0.0 - - - - - - -
25/03:30am 10.5 WNW 3 6 1029.3 - 0.0 - - - - - - -
25/03:00am 10.3 NNW 4 6 1029.5 - 0.0 - - - - - - -
25/02:30am 10.3 NNW 4 8 1029.9 - 0.0 - - - - - - -
25/02:00am 10.4 NW 5 8 1029.8 - 0.0 - - - - - - -
25/01:30am 10.1 WNW 6 9 1029.8 - 0.0 - - - - - - -
25/01:00am 10.1 WNW 7 9 1029.9 - 0.0 - - - - - - -
25/12:30am 9.7 CALM 0 0 1030.2 - 0.0 - - - - - - -
25/12:00am 9.6 E 1 3 1030.1 - 0.0 - - - - - - -
 
Date/Time
EST
Temp

°C
Wind Pressure Rain
since 9am
mm
Weather Cloud Vis
km
Sea
Height
m
Swell
Dir
 
Speed
knots
Gust
knots
hPa Trend Height
m
Period
s
Dir
24/11:30pm 9.8 S 1 4 1030.0 - 0.0 - - - - - - -
24/11:00pm 9.6 NNE 3 5 1030.1 - 0.0 - - - - - - -
24/10:30pm 9.6 NNE 5 7 1030.2 - 0.0 - - - - - - -
24/10:00pm 10.3 NW 8 12 1030.4 - 0.0 - - - - - - -
24/09:30pm 9.7 N 1 5 1030.4 - 0.0 - - - - - - -
24/09:00pm 10.1 NE 3 4 1030.3 - 0.0 - - - - - - -
24/08:30pm 9.7 NNW 4 8 1030.0 - 0.0 - - - - - - -
24/08:00pm 9.8 CALM 0 0 1030.3 - 0.0 - - - - - - -
24/07:30pm 9.8 W 4 5 1030.1 - 0.0 - - - - - - -
24/07:00pm 9.7 N 3 4 1030.1 - 0.0 - - - - - - -
24/06:30pm 9.8 N 2 4 1030.0 - 0.0 - - - - - - -
24/06:00pm 10.1 NNW 3 4 1030.0 - 0.0 - - - - - - -
24/05:30pm 10.3 NNE 4 5 1029.8 - 0.0 - - - - - - -
24/05:00pm 10.7 NE 6 7 1029.5 - 0.0 - - - - - - -
24/04:30pm 11.0 N 2 5 1029.7 - 0.0 - - - - - - -
24/04:00pm 11.4 NNE 5 7 1029.7 - 0.0 - - - - - - -
24/03:30pm 11.4 NNE 4 8 1029.7 - 0.0 - - - - - - -
24/03:00pm 11.5 NNE 5 9 1029.4 - 0.0 - - - - - - -
24/02:30pm 11.6 NE 5 6 1029.5 - 0.0 - - - - - - -
24/02:00pm 11.3 ENE 3 5 1029.7 - 0.0 - - - - - - -
24/01:30pm 11.4 E 3 7 1029.9 - 0.0 - - - - - - -
24/01:00pm 11.2 E 4 6 1030.0 - 0.0 - - - - - - -
24/12:30pm 11.5 W 6 12 1030.3 - 0.0 - - - - - - -
24/12:00pm 11.2 W 9 13 1030.3 - 0.0 - - - - - - -
24/11:30am 11.6 W 9 13 1030.7 - 0.0 - - - - - - -
24/11:00am 12.0 W 5 8 1031.0 - 0.0 - - - - - - -
24/10:30am 11.2 W 5 10 1031.2 - 0.0 - - - - - - -
24/10:00am 10.7 W 7 11 1031.0 - 0.0 - - - - - - -
24/09:30am 10.3 WNW 8 14 1031.1 - 0.0 - - - - - - -
24/09:00am 10.2 WNW 6 11 1031.1 - 0.0 - - - - - - -
24/08:30am 10.0 NW 8 11 1030.7 - 0.0 - - - - - - -
24/08:00am 9.8 NW 9 12 1030.5 - 0.0 - - - - - - -
24/07:30am 9.6 NW 9 12 1030.1 - 0.0 - - - - - - -
24/07:00am 9.5 NW 8 12 1030.1 - 0.0 - - - - - - -
24/06:30am 9.8 NW 10 13 1030.1 - 0.0 - - - - - - -
24/06:00am 10.0 W 6 12 1030.0 - 0.0 - - - - - - -
24/05:30am 10.1 WNW 11 15 1029.8 - 0.0 - - - - - - -
24/05:00am 10.1 WNW 11 15 1029.7 - 0.0 - - - - - - -
24/04:30am 10.0 WNW 8 14 1029.5 - 0.0 - - - - - - -
24/04:00am 10.0 WNW 10 14 1029.4 - 0.0 - - - - - - -
24/03:30am 10.0 W 14 17 1029.4 - 0.0 - - - - - - -
24/03:00am 10.0 W 13 16 1029.5 - 0.0 - - - - - - -
24/02:30am 10.2 W 17 22 1029.5 - 0.0 - - - - - - -
24/02:00am 10.4 W 15 21 1029.5 - 0.0 - - - - - - -
24/01:30am 10.3 W 15 22 1029.2 - 0.0 - - - - - - -
24/01:00am 10.1 W 13 19 1029.7 - 0.0 - - - - - - -
24/12:30am 10.0 W 16 23 1029.6 - 0.0 - - - - - - -
24/12:02am 10.1 W 19 29 1029.1 - 0.0 - - - - - - -
24/12:00am 10.0 W 18 31 1029.2 - 0.0 - - - - - - -
 
Date/Time
EST
Temp

°C
Wind Pressure Rain
since 9am
mm
Weather Cloud Vis
km
Sea
Height
m
Swell
Dir
 
Speed
knots
Gust
knots
hPa Trend Height
m
Period
s
Dir
23/11:31pm 10.3 W 28 39 1028.5 - 0.0 - - - - - - -
23/11:30pm 10.3 W 28 35 1028.6 - 0.0 - - - - - - -
23/11:00pm 10.2 W 29 39 1028.3 - 0.0 - - - - - - -
23/10:30pm 10.3 W 30 41 1028.6 - 0.0 - - - - - - -

Other Formats:

Comma delimited format used in spreadsheet applications
http://www.bom.gov.au/fwo/IDV60701/IDV60701.94893.axf

JavaScript Object Notation format (JSON) in row-major order
http://www.bom.gov.au/fwo/IDV60701/IDV60701.94893.json